createdAt,value
2022-10-11T00:00:44.613Z,5.60
2022-10-11T00:03:11.277Z,5.50
2022-10-11T00:05:38.250Z,5.70
2022-10-11T00:08:06.498Z,5.05
2022-10-11T00:10:33.897Z,5.50
2022-10-11T00:13:01.064Z,4.75
2022-10-11T00:15:27.972Z,4.75
2022-10-11T00:17:54.696Z,4.20
2022-10-11T00:20:21.277Z,3.75
2022-10-11T00:22:49.281Z,3.65
2022-10-11T00:25:17.292Z,2.67
2022-10-11T00:27:43.942Z,3.13
2022-10-11T00:30:11.590Z,2.88
2022-10-11T00:32:39.241Z,3.35
2022-10-11T00:35:07.091Z,3.10
2022-10-11T00:37:38.646Z,2.70
2022-10-11T00:40:13.329Z,2.70
2022-10-11T00:42:40.200Z,2.60
2022-10-11T00:45:31.474Z,2.33
2022-10-11T00:48:10.007Z,2.20
2022-10-11T00:50:37.449Z,1.92
2022-10-11T00:53:11.233Z,1.90
2022-10-11T00:55:48.089Z,1.70
2022-10-11T00:58:15.311Z,1.27
2022-10-11T01:00:42.585Z,2.35
2022-10-11T01:03:09.309Z,1.70
2022-10-11T01:05:38.889Z,1.60
2022-10-11T01:08:07.601Z,1.50
2022-10-11T01:10:34.277Z,2.10
2022-10-11T01:13:26.357Z,1.25
2022-10-11T01:16:27.455Z,1.52
2022-10-11T01:19:14.254Z,1.65
2022-10-11T01:22:41.273Z,1.25
2022-10-11T01:25:26.210Z,1.52
2022-10-11T01:28:49.344Z,1.40
2022-10-11T01:31:28.981Z,1.40
2022-10-11T01:34:23.369Z,1.25
2022-10-11T01:37:10.502Z,1.30
2022-10-11T01:39:48.233Z,1.27
2022-10-11T01:42:17.861Z,1.50
2022-10-11T01:44:48.162Z,2.13
2022-10-11T01:47:23.230Z,1.15
2022-10-11T01:50:00.182Z,1.85
2022-10-11T01:52:31.454Z,1.52
2022-10-11T01:55:37.610Z,1.52
2022-10-11T01:58:31.621Z,1.42
2022-10-11T02:01:27.092Z,1.13
2022-10-11T02:04:17.756Z,1.60
2022-10-11T02:06:57.743Z,1.40
2022-10-11T02:09:31.476Z,1.10
2022-10-11T02:12:05.645Z,1.60
2022-10-11T02:14:44.026Z,1.48
2022-10-11T02:17:22.494Z,1.45
2022-10-11T02:19:53.565Z,3.95
2022-10-11T02:22:37.766Z,2.00
2022-10-11T02:25:10.306Z,2.50
2022-10-11T02:27:40.547Z,2.92
2022-10-11T02:30:09.486Z,2.08
2022-10-11T02:32:40.209Z,2.28
2022-10-11T02:35:08.214Z,5.07
2022-10-11T02:38:05.961Z,2.28
2022-10-11T02:40:35.750Z,2.05
2022-10-11T02:43:10.990Z,3.00
2022-10-11T02:45:45.193Z,2.45
2022-10-11T02:48:12.646Z,1.73
2022-10-11T02:50:40.301Z,1.98
2022-10-11T02:53:07.999Z,1.85
2022-10-11T02:55:34.987Z,1.83
2022-10-11T02:58:01.907Z,1.52
2022-10-11T03:00:28.950Z,1.55
2022-10-11T03:02:55.583Z,1.40
2022-10-11T03:05:22.230Z,1.60
2022-10-11T03:07:48.810Z,1.70
2022-10-11T03:10:15.551Z,1.40
2022-10-11T03:12:42.174Z,1.60
2022-10-11T03:15:09.418Z,1.60
2022-10-11T03:17:37.171Z,1.90
2022-10-11T03:20:06.323Z,1.00
2022-10-11T03:22:32.915Z,1.30
2022-10-11T03:25:03.678Z,1.88
2022-10-11T03:27:31.422Z,2.00
2022-10-11T03:29:58.903Z,1.90
2022-10-11T03:32:25.665Z,2.25
2022-10-11T03:34:52.335Z,3.67
2022-10-11T03:37:18.920Z,2.70
2022-10-11T03:39:45.791Z,2.05
2022-10-11T03:42:13.350Z,1.70
2022-10-11T03:44:41.529Z,1.70
2022-10-11T03:47:12.966Z,1.77
2022-10-11T03:49:43.482Z,1.67
2022-10-11T03:52:12.158Z,1.90
2022-10-11T03:54:38.701Z,2.20
2022-10-11T03:57:08.014Z,2.28
2022-10-11T03:59:34.639Z,1.50
2022-10-11T04:02:01.398Z,1.60
2022-10-11T04:04:28.034Z,1.90
2022-10-11T04:06:54.598Z,1.40
2022-10-11T04:09:21.203Z,1.48
2022-10-11T04:11:47.785Z,1.40
2022-10-11T04:14:14.531Z,1.25
2022-10-11T04:16:41.214Z,1.48
2022-10-11T04:19:09.578Z,1.30
2022-10-11T04:21:36.375Z,2.15
2022-10-11T04:24:03.104Z,4.30
2022-10-11T04:26:29.698Z,10.10
2022-10-11T04:28:56.340Z,9.23
2022-10-11T04:31:23.711Z,6.72
2022-10-11T04:33:50.416Z,5.03
2022-10-11T04:36:16.975Z,2.47
2022-10-11T04:38:43.529Z,3.40
2022-10-11T04:41:13.538Z,2.92
2022-10-11T04:43:40.311Z,2.75
2022-10-11T04:46:08.534Z,2.53
2022-10-11T04:48:37.928Z,1.92
2022-10-11T04:51:06.127Z,1.92
2022-10-11T04:53:32.722Z,1.80
2022-10-11T04:56:06.030Z,1.60
2022-10-11T04:58:35.014Z,1.80
2022-10-11T05:01:01.623Z,1.90
2022-10-11T05:03:31.118Z,2.28
2022-10-11T05:06:04.660Z,1.92
2022-10-11T05:08:32.144Z,1.70
2022-10-11T05:11:05.423Z,1.35
2022-10-11T05:13:34.150Z,1.92
2022-10-11T05:16:03.306Z,1.80
2022-10-11T05:18:31.911Z,2.30
2022-10-11T05:21:03.856Z,1.73
2022-10-11T05:23:32.319Z,1.60
2022-10-11T05:25:59.991Z,2.45
2022-10-11T05:28:27.342Z,2.05
2022-10-11T05:30:54.630Z,1.98
2022-10-11T05:33:22.400Z,2.05
2022-10-11T05:35:49.316Z,2.33
2022-10-11T05:38:16.361Z,2.13
2022-10-11T05:40:43.383Z,1.83
2022-10-11T05:43:10.410Z,1.42
2022-10-11T05:45:39.229Z,1.83
2022-10-11T05:48:06.406Z,1.60
2022-10-11T05:50:33.313Z,1.88
2022-10-11T05:52:59.949Z,1.98
2022-10-11T05:55:26.593Z,1.88
2022-10-11T05:57:55.710Z,1.70
2022-10-11T06:00:25.330Z,1.95
2022-10-11T06:02:51.966Z,2.35
2022-10-11T06:05:18.617Z,2.30
2022-10-11T06:07:45.325Z,1.85
2022-10-11T06:10:12.084Z,2.55
2022-10-11T06:12:38.776Z,2.50
2022-10-11T06:15:06.682Z,2.28
2022-10-11T06:17:33.333Z,2.60
2022-10-11T06:19:59.902Z,1.60
2022-10-11T06:22:26.660Z,2.05
2022-10-11T06:24:53.224Z,1.67
2022-10-11T06:27:19.782Z,2.10
2022-10-11T06:29:46.349Z,1.80
2022-10-11T06:32:15.853Z,1.40
2022-10-11T06:34:42.432Z,1.77
2022-10-11T06:37:09.050Z,1.92
2022-10-11T06:39:35.610Z,1.65
2022-10-11T06:42:02.281Z,1.75
2022-10-11T06:44:29.233Z,1.65
2022-10-11T06:46:55.807Z,1.52
2022-10-11T06:49:23.631Z,1.77
2022-10-11T06:51:50.959Z,1.50
2022-10-11T06:54:17.674Z,4.88
2022-10-11T06:56:45.544Z,3.05
2022-10-11T06:59:13.294Z,2.50
2022-10-11T07:01:40.100Z,1.58
2022-10-11T07:04:07.082Z,1.95
2022-10-11T07:06:38.441Z,1.80
2022-10-11T07:09:06.434Z,1.90
2022-10-11T07:11:34.010Z,1.92
2022-10-11T07:14:07.459Z,2.47
2022-10-11T07:16:36.178Z,2.33
2022-10-11T07:19:05.758Z,1.88
2022-10-11T07:21:34.700Z,1.40
2022-10-11T07:24:01.933Z,1.90
2022-10-11T07:26:33.761Z,4.05
2022-10-11T07:29:04.421Z,4.20
2022-10-11T07:31:31.157Z,3.83
2022-10-11T07:33:57.791Z,4.30
2022-10-11T07:36:25.429Z,3.50
2022-10-11T07:38:52.100Z,2.08
2022-10-11T07:41:19.604Z,2.80
2022-10-11T07:43:47.850Z,2.55
2022-10-11T07:46:14.503Z,1.85
2022-10-11T07:48:41.712Z,2.20
2022-10-11T07:51:18.297Z,2.33
2022-10-11T07:53:55.325Z,2.53
2022-10-11T07:56:28.041Z,2.00
2022-10-11T07:58:57.776Z,2.08
2022-10-11T08:01:26.063Z,2.15
2022-10-11T08:03:53.683Z,2.10
2022-10-11T08:06:26.039Z,2.42
2022-10-11T08:08:53.137Z,1.98
2022-10-11T08:11:32.855Z,2.03
2022-10-11T08:14:00.279Z,2.03
2022-10-11T08:16:28.839Z,2.40
2022-10-11T08:18:56.757Z,1.55
2022-10-11T08:21:23.964Z,2.40
2022-10-11T08:23:50.543Z,1.80
2022-10-11T08:26:17.234Z,2.58
2022-10-11T08:28:44.004Z,1.55
2022-10-11T08:31:15.567Z,2.17
2022-10-11T08:33:42.446Z,1.80
2022-10-11T08:36:10.201Z,2.30
2022-10-11T08:38:38.934Z,1.95
2022-10-11T08:41:27.926Z,2.40
2022-10-11T08:47:43.091Z,1.90
2022-10-11T08:50:20.289Z,2.25
2022-10-11T08:53:16.104Z,1.90
2022-10-11T08:55:50.871Z,2.33
2022-10-11T08:58:22.497Z,2.13
2022-10-11T09:00:54.978Z,2.08
2022-10-11T09:03:43.174Z,2.38
2022-10-11T09:06:49.962Z,2.60
2022-10-11T09:09:50.911Z,2.05
2022-10-11T09:12:40.920Z,2.10
2022-10-11T09:15:46.757Z,2.47
2022-10-11T09:19:02.899Z,3.05
2022-10-11T09:21:48.987Z,2.35
2022-10-11T09:25:06.999Z,2.75
2022-10-11T09:28:01.916Z,2.28
2022-10-11T09:30:27.592Z,2.60
2022-10-11T09:33:19.914Z,2.45
2022-10-11T09:35:50.571Z,2.17
2022-10-11T09:39:07.462Z,2.17
2022-10-11T09:41:59.020Z,2.58
2022-10-11T09:44:34.735Z,2.35
2022-10-11T09:47:01.425Z,2.45
2022-10-11T09:49:36.424Z,2.45
2022-10-11T09:52:07.636Z,2.35
2022-10-11T09:54:45.170Z,2.20
2022-10-11T09:57:30.508Z,1.80
2022-10-11T10:00:23.391Z,1.55
2022-10-11T10:02:59.136Z,2.08
2022-10-11T10:05:29.536Z,2.30
2022-10-11T10:08:11.462Z,1.70
2022-10-11T10:10:59.632Z,2.00
2022-10-11T10:13:43.331Z,2.35
2022-10-11T10:16:29.535Z,2.40
2022-10-11T10:19:21.343Z,2.17
2022-10-11T10:21:54.927Z,1.50
2022-10-11T10:24:33.787Z,2.28
2022-10-11T10:27:29.351Z,2.45
2022-10-11T10:30:08.086Z,1.83
2022-10-11T10:33:01.000Z,2.35
2022-10-11T10:35:36.807Z,2.05
2022-10-11T10:38:40.739Z,2.08
2022-10-11T10:41:13.706Z,2.42
2022-10-11T10:43:45.688Z,2.08
2022-10-11T10:46:38.839Z,1.90
2022-10-11T10:49:55.473Z,2.08
2022-10-11T10:52:50.227Z,2.17
2022-10-11T10:55:44.442Z,2.47
2022-10-11T10:58:59.090Z,2.08
2022-10-11T11:01:56.367Z,2.17
2022-10-11T11:04:33.342Z,1.60
2022-10-11T11:07:33.473Z,1.30
2022-10-11T11:10:13.453Z,2.00
2022-10-11T11:13:03.045Z,1.40
2022-10-11T11:16:07.119Z,1.90
2022-10-11T11:19:18.249Z,1.77
2022-10-11T11:21:59.933Z,1.90
2022-10-11T11:25:07.109Z,1.65
2022-10-11T11:27:48.677Z,1.80
2022-10-11T11:30:50.921Z,2.10
2022-10-11T11:33:48.519Z,2.00
2022-10-11T11:36:27.585Z,1.50
2022-10-11T11:38:59.870Z,1.70
2022-10-11T11:41:36.050Z,1.50
2022-10-11T11:44:17.882Z,2.00
2022-10-11T11:47:11.670Z,1.77
2022-10-11T11:50:03.893Z,2.22
2022-10-11T11:52:44.705Z,1.85
2022-10-11T11:55:19.318Z,2.33
2022-10-11T11:58:25.119Z,2.08
2022-10-11T12:01:14.988Z,1.42
2022-10-11T12:03:47.734Z,2.03
2022-10-11T12:06:16.911Z,2.80
2022-10-11T12:08:48.577Z,2.53
2022-10-11T12:11:37.046Z,1.88
2022-10-11T12:14:33.073Z,1.58
2022-10-11T12:17:22.623Z,1.20
2022-10-11T12:20:15.271Z,1.65
2022-10-11T12:22:53.638Z,1.60
2022-10-11T12:25:23.281Z,1.52
2022-10-11T12:27:56.357Z,1.95
2022-10-11T12:30:47.931Z,1.75
2022-10-11T12:33:21.349Z,1.50
2022-10-11T12:35:53.889Z,1.70
2022-10-11T12:38:37.709Z,1.80
2022-10-11T12:41:10.173Z,2.03
2022-10-11T12:44:18.336Z,1.65
2022-10-11T12:46:51.341Z,1.65
2022-10-11T12:49:40.593Z,1.60
2022-10-11T12:52:16.241Z,1.58
2022-10-11T12:55:04.372Z,2.03
2022-10-11T12:58:08.591Z,1.65
2022-10-11T13:01:05.003Z,1.92
2022-10-11T13:04:05.069Z,1.92
2022-10-11T13:06:47.648Z,1.90
2022-10-11T13:09:25.068Z,1.73
2022-10-11T13:12:02.317Z,1.52
2022-10-11T13:14:38.457Z,1.52
2022-10-11T13:17:26.648Z,1.85
2022-10-11T13:20:05.432Z,1.75
2022-10-11T13:22:34.981Z,2.25
2022-10-11T13:25:05.957Z,1.80
2022-10-11T13:27:32.629Z,2.20
2022-10-11T13:30:02.301Z,1.67
2022-10-11T13:32:32.053Z,1.65
2022-10-11T13:35:05.660Z,1.60
2022-10-11T13:37:42.423Z,1.67
2022-10-11T13:40:19.177Z,1.83
2022-10-11T13:42:48.552Z,1.73
2022-10-11T13:45:20.343Z,1.77
2022-10-11T13:47:49.183Z,1.55
2022-10-11T13:50:15.949Z,1.13
2022-10-11T13:53:09.234Z,1.55
2022-10-11T13:56:00.300Z,1.40
2022-10-11T13:58:35.497Z,1.60
2022-10-11T14:01:26.924Z,1.52
2022-10-11T14:04:07.097Z,1.65
2022-10-11T14:06:48.167Z,1.88
2022-10-11T14:09:26.805Z,1.15
2022-10-11T14:11:54.337Z,1.90
2022-10-11T14:14:32.782Z,1.63
2022-10-11T14:17:12.165Z,1.63
2022-10-11T14:19:39.470Z,1.50
2022-10-11T14:22:13.778Z,1.90
2022-10-11T14:24:40.973Z,1.83
2022-10-11T14:27:19.214Z,1.42
2022-10-11T14:30:00.441Z,1.98
2022-10-11T14:32:35.121Z,1.60
2022-10-11T14:35:02.245Z,1.60
2022-10-11T14:37:28.857Z,1.70
2022-10-11T14:39:55.437Z,1.50
2022-10-11T14:42:22.065Z,1.30
2022-10-11T14:44:48.668Z,1.60
2022-10-11T14:47:17.269Z,1.98
2022-10-11T14:49:44.760Z,1.58
2022-10-11T14:52:13.278Z,1.55
2022-10-11T14:54:40.658Z,1.83
2022-10-11T14:57:07.269Z,1.40
2022-10-11T14:59:37.588Z,1.38
2022-10-11T15:02:08.100Z,1.55
2022-10-11T15:04:35.919Z,1.52
2022-10-11T15:07:03.955Z,1.52
2022-10-11T15:09:31.071Z,2.13
2022-10-11T15:11:58.602Z,1.70
2022-10-11T15:14:25.900Z,1.65
2022-10-11T15:16:53.179Z,1.48
2022-10-11T15:19:23.994Z,1.40
2022-10-11T15:21:51.627Z,1.48
2022-10-11T15:24:21.278Z,2.17
2022-10-11T15:26:48.699Z,1.42
2022-10-11T15:29:17.751Z,1.80
2022-10-11T15:31:44.887Z,1.52
2022-10-11T15:34:11.607Z,1.73
2022-10-11T15:36:38.339Z,2.03
2022-10-11T15:39:33.665Z,1.80
2022-10-11T15:42:00.469Z,1.90
2022-10-11T15:44:27.159Z,2.22
2022-10-11T15:46:54.008Z,1.85
2022-10-11T15:49:20.851Z,1.73
2022-10-11T15:51:47.644Z,1.58
2022-10-11T15:54:14.233Z,1.80
2022-10-11T15:56:40.823Z,1.33
2022-10-11T15:59:09.723Z,1.40
2022-10-11T16:01:36.333Z,1.70
2022-10-11T16:04:02.987Z,2.17
2022-10-11T16:06:29.604Z,6.63
2022-10-11T16:08:58.505Z,23.92
2022-10-11T16:11:25.087Z,21.02
2022-10-11T16:13:51.687Z,15.52
2022-10-11T16:16:18.287Z,8.82
2022-10-11T16:18:44.890Z,5.72
2022-10-11T16:21:15.523Z,2.63
2022-10-11T16:23:42.471Z,1.98
2022-10-11T16:26:13.521Z,2.45
2022-10-11T16:28:41.723Z,1.92
2022-10-11T16:31:17.960Z,1.58
2022-10-11T16:33:47.789Z,1.50
2022-10-11T16:36:36.371Z,1.60
2022-10-11T16:39:12.244Z,1.50
2022-10-11T16:41:39.635Z,1.52
2022-10-11T16:44:07.127Z,2.97
2022-10-11T16:46:34.271Z,2.22
2022-10-11T16:49:00.984Z,1.48
2022-10-11T16:51:27.685Z,1.88
2022-10-11T16:53:54.387Z,2.42
2022-10-11T16:56:23.959Z,1.75
2022-10-11T16:58:54.209Z,1.50
2022-10-11T17:01:22.245Z,1.45
2022-10-11T17:03:50.100Z,1.77
2022-10-11T17:06:17.169Z,1.48
2022-10-11T17:08:43.870Z,2.00
2022-10-11T17:11:10.842Z,1.60
2022-10-11T17:13:37.406Z,1.80
2022-10-11T17:16:14.842Z,1.83
2022-10-11T17:18:41.562Z,1.40
2022-10-11T17:21:13.261Z,1.48
2022-10-11T17:23:41.530Z,1.50
2022-10-11T17:26:14.741Z,1.98
2022-10-11T17:28:41.605Z,1.73
2022-10-11T17:31:08.717Z,1.77
2022-10-11T17:33:36.021Z,1.85
2022-10-11T17:36:21.068Z,2.20
2022-10-11T17:38:49.438Z,1.70
2022-10-11T17:41:17.534Z,1.70
2022-10-11T17:43:44.402Z,2.00
2022-10-11T17:46:14.049Z,2.00
2022-10-11T17:48:41.546Z,1.75
2022-10-11T17:51:14.034Z,1.80
2022-10-11T17:53:41.654Z,1.83
2022-10-11T17:56:15.086Z,2.70
2022-10-11T17:58:42.501Z,1.88
2022-10-11T18:01:13.437Z,1.75
2022-10-11T18:03:40.369Z,2.03
2022-10-11T18:06:09.835Z,1.92
2022-10-11T18:08:40.533Z,2.10
2022-10-11T18:11:18.301Z,2.00
2022-10-11T18:13:48.725Z,2.33
2022-10-11T18:16:19.445Z,2.00
2022-10-11T18:18:46.203Z,2.75
2022-10-11T18:21:13.056Z,2.40
2022-10-11T18:23:40.381Z,1.95
2022-10-11T18:26:20.523Z,2.50
2022-10-11T18:28:48.888Z,2.70
2022-10-11T18:31:20.772Z,3.30
2022-10-11T18:33:50.913Z,3.28
2022-10-11T18:36:22.917Z,2.80
2022-10-11T18:38:55.326Z,2.15
2022-10-11T18:41:24.346Z,1.95
2022-10-11T18:43:56.742Z,2.55
2022-10-11T18:46:23.918Z,1.95
2022-10-11T18:48:53.238Z,2.50
2022-10-11T18:51:23.694Z,2.35
2022-10-11T18:53:50.802Z,2.20
2022-10-11T18:56:22.831Z,2.40
2022-10-11T18:58:51.334Z,1.65
2022-10-11T19:01:35.233Z,1.77
2022-10-11T19:04:04.403Z,1.80
2022-10-11T19:06:41.053Z,1.88
2022-10-11T19:09:11.747Z,1.48
2022-10-11T19:11:39.776Z,2.00
2022-10-11T19:14:11.238Z,1.95
2022-10-11T19:16:41.926Z,1.70
2022-10-11T19:19:22.658Z,1.70
2022-10-11T19:21:49.894Z,1.65
2022-10-11T19:24:19.495Z,1.77
2022-10-11T19:26:47.672Z,1.70
2022-10-11T19:29:19.545Z,1.80
2022-10-11T19:31:54.961Z,1.65
2022-10-11T19:34:23.375Z,1.88
2022-10-11T19:36:50.726Z,1.60
2022-10-11T19:39:18.747Z,1.67
2022-10-11T19:41:45.993Z,1.75
2022-10-11T19:44:14.383Z,1.67
2022-10-11T19:46:58.332Z,2.35
2022-10-11T19:49:27.090Z,1.50
2022-10-11T19:51:55.182Z,2.15
2022-10-11T19:54:22.389Z,1.70
2022-10-11T19:56:49.027Z,2.15
2022-10-11T19:59:18.092Z,1.55
2022-10-11T20:01:51.044Z,3.75
2022-10-11T20:04:47.017Z,1.90
2022-10-11T20:07:06.161Z,1.42
2022-10-11T20:09:32.881Z,1.40
2022-10-11T20:11:59.466Z,1.80
2022-10-11T20:14:26.278Z,1.70
2022-10-11T20:16:53.030Z,1.65
2022-10-11T20:19:19.946Z,1.65
2022-10-11T20:21:47.577Z,1.55
2022-10-11T20:24:14.217Z,1.45
2022-10-11T20:26:40.913Z,1.55
2022-10-11T20:29:07.591Z,1.48
2022-10-11T20:31:40.538Z,1.73
2022-10-11T20:34:07.649Z,1.70
2022-10-11T20:36:35.853Z,1.42
2022-10-11T20:39:05.513Z,1.40
2022-10-11T20:41:36.829Z,1.52
2022-10-11T20:44:04.509Z,1.73
2022-10-11T20:46:35.346Z,1.30
2022-10-11T20:49:09.103Z,2.05
2022-10-11T20:51:38.514Z,1.55
2022-10-11T20:54:05.571Z,2.10
2022-10-11T20:56:33.570Z,1.42
2022-10-11T20:59:00.369Z,1.80
2022-10-11T21:01:31.761Z,2.00
2022-10-11T21:04:00.837Z,2.38
2022-10-11T21:06:29.801Z,1.95
2022-10-11T21:08:57.173Z,2.30
2022-10-11T21:11:29.175Z,1.80
2022-10-11T21:13:57.991Z,1.73
2022-10-11T21:16:24.842Z,1.67
2022-10-11T21:18:56.023Z,1.95
2022-10-11T21:21:25.948Z,1.83
2022-10-11T21:24:01.100Z,1.98
2022-10-11T21:26:28.942Z,1.98
2022-10-11T21:28:55.873Z,1.88
2022-10-11T21:31:23.468Z,2.22
2022-10-11T21:33:50.706Z,2.00
2022-10-11T21:36:20.527Z,1.98
2022-10-11T21:38:48.565Z,2.50
2022-10-11T21:41:25.287Z,2.10
2022-10-11T21:43:52.922Z,2.30
2022-10-11T21:46:36.975Z,2.30
2022-10-11T21:49:13.428Z,2.17
2022-10-11T21:51:40.110Z,2.80
2022-10-11T21:54:06.921Z,2.30
2022-10-11T21:56:35.399Z,2.50
2022-10-11T21:59:01.984Z,2.53
2022-10-11T22:01:28.590Z,2.47
2022-10-11T22:03:55.364Z,2.47
2022-10-11T22:06:23.070Z,2.88
2022-10-11T22:08:49.981Z,2.15
2022-10-11T22:11:16.923Z,2.28
2022-10-11T22:13:43.689Z,2.55
2022-10-11T22:16:12.809Z,2.17
2022-10-11T22:18:41.176Z,2.50
2022-10-11T22:21:17.169Z,2.13
2022-10-11T22:23:46.845Z,2.95
2022-10-11T22:26:17.529Z,2.50
2022-10-11T22:28:46.350Z,2.55
2022-10-11T22:31:14.505Z,2.78
2022-10-11T22:33:41.915Z,2.13
2022-10-11T22:36:11.876Z,2.70
2022-10-11T22:38:41.214Z,2.10
2022-10-11T22:41:07.877Z,2.03
2022-10-11T22:43:34.949Z,2.63
2022-10-11T22:46:01.959Z,2.05
2022-10-11T22:48:28.568Z,2.38
2022-10-11T22:50:55.186Z,2.25
2022-10-11T22:53:21.956Z,2.30
2022-10-11T22:55:49.757Z,2.10
2022-10-11T22:58:16.381Z,2.40
2022-10-11T23:00:43.585Z,2.05
2022-10-11T23:03:15.878Z,1.88
2022-10-11T23:05:42.497Z,2.28
2022-10-11T23:08:09.653Z,2.10
2022-10-11T23:10:40.227Z,2.08
2022-10-11T23:13:06.994Z,1.52
2022-10-11T23:15:33.553Z,1.30
2022-10-11T23:18:00.124Z,1.60
2022-10-11T23:20:26.725Z,1.88
2022-10-11T23:22:53.346Z,1.83
2022-10-11T23:25:20.023Z,1.95
2022-10-11T23:27:46.566Z,1.67
2022-10-11T23:30:13.622Z,1.73
2022-10-11T23:32:40.173Z,1.77
2022-10-11T23:35:07.288Z,1.73
2022-10-11T23:37:33.902Z,1.67
2022-10-11T23:40:00.546Z,1.45
2022-10-11T23:42:27.353Z,1.40
2022-10-11T23:44:54.239Z,1.63
2022-10-11T23:47:20.819Z,1.83
2022-10-11T23:49:47.373Z,1.77
2022-10-11T23:52:13.930Z,1.48
2022-10-11T23:54:40.477Z,1.77
2022-10-11T23:57:07.061Z,1.70
2022-10-11T23:59:33.673Z,1.75
